sensor_id;sensor_type;location;lat;lon;timestamp;pressure;altitude;pressure_sealevel;temperature;humidity
63663;BME280;49815;51.618;0.336;2022-07-31T00:02:10;100972.30;;;21.17;44.11
63663;BME280;49815;51.618;0.336;2022-07-31T00:04:35;100971.40;;;20.36;45.76
63663;BME280;49815;51.618;0.336;2022-07-31T00:07:01;100969.38;;;21.29;44.25
63663;BME280;49815;51.618;0.336;2022-07-31T00:09:26;100971.82;;;19.17;48.09
63663;BME280;49815;51.618;0.336;2022-07-31T00:11:51;100970.26;;;19.87;46.53
63663;BME280;49815;51.618;0.336;2022-07-31T00:14:16;100970.65;;;18.73;48.42
63663;BME280;49815;51.618;0.336;2022-07-31T00:16:42;100969.44;;;19.82;46.80
63663;BME280;49815;51.618;0.336;2022-07-31T00:19:06;100967.61;;;20.38;45.99
63663;BME280;49815;51.618;0.336;2022-07-31T00:21:32;100968.86;;;20.87;45.26
63663;BME280;49815;51.618;0.336;2022-07-31T00:23:57;100968.42;;;19.57;46.61
63663;BME280;49815;51.618;0.336;2022-07-31T00:26:22;100962.86;;;20.89;45.27
63663;BME280;49815;51.618;0.336;2022-07-31T00:28:47;100963.97;;;19.98;46.25
63663;BME280;49815;51.618;0.336;2022-07-31T00:31:13;100965.14;;;19.60;46.90
63663;BME280;49815;51.618;0.336;2022-07-31T00:33:37;100966.62;;;19.83;47.27
63663;BME280;49815;51.618;0.336;2022-07-31T00:36:03;100963.63;;;19.09;48.38
63663;BME280;49815;51.618;0.336;2022-07-31T00:38:28;100956.13;;;19.99;45.89
63663;BME280;49815;51.618;0.336;2022-07-31T00:40:53;100961.16;;;20.82;45.07
63663;BME280;49815;51.618;0.336;2022-07-31T00:43:18;100963.44;;;20.31;45.54
63663;BME280;49815;51.618;0.336;2022-07-31T00:45:43;100961.86;;;20.57;45.12
63663;BME280;49815;51.618;0.336;2022-07-31T00:48:13;100967.21;;;20.87;45.18
63663;BME280;49815;51.618;0.336;2022-07-31T00:50:33;100965.16;;;19.66;46.60
63663;BME280;49815;51.618;0.336;2022-07-31T00:52:58;100960.47;;;20.17;46.27
63663;BME280;49815;51.618;0.336;2022-07-31T00:55:24;100957.46;;;21.10;44.67
63663;BME280;49815;51.618;0.336;2022-07-31T00:57:49;100957.88;;;22.19;43.05
63663;BME280;49815;51.618;0.336;2022-07-31T01:00:15;100957.15;;;19.58;46.66
63663;BME280;49815;51.618;0.336;2022-07-31T01:02:40;100953.04;;;20.93;44.99
63663;BME280;49815;51.618;0.336;2022-07-31T01:05:05;100947.64;;;20.35;45.46
63663;BME280;49815;51.618;0.336;2022-07-31T01:07:30;100947.52;;;19.17;47.57
63663;BME280;49815;51.618;0.336;2022-07-31T01:09:55;100949.06;;;19.18;47.99
63663;BME280;49815;51.618;0.336;2022-07-31T01:12:24;100950.34;;;20.57;45.42
63663;BME280;49815;51.618;0.336;2022-07-31T01:14:49;100949.08;;;19.47;47.58
63663;BME280;49815;51.618;0.336;2022-07-31T01:17:11;100941.77;;;20.46;46.01
63663;BME280;49815;51.618;0.336;2022-07-31T01:19:38;100938.63;;;20.74;45.47
63663;BME280;49815;51.618;0.336;2022-07-31T01:22:07;100940.25;;;19.01;48.14
63663;BME280;49815;51.618;0.336;2022-07-31T01:24:38;100928.81;;;19.51;47.52
63663;BME280;49815;51.618;0.336;2022-07-31T01:26:55;100923.23;;;18.68;49.79
63663;BME280;49815;51.618;0.336;2022-07-31T01:29:21;100921.29;;;19.37;47.93
63663;BME280;49815;51.618;0.336;2022-07-31T01:31:45;100913.13;;;20.91;45.46
63663;BME280;49815;51.618;0.336;2022-07-31T01:34:16;100916.98;;;18.91;49.57
63663;BME280;49815;51.618;0.336;2022-07-31T01:36:32;100914.90;;;20.35;46.48
63663;BME280;49815;51.618;0.336;2022-07-31T01:38:57;100918.91;;;19.97;46.87
63663;BME280;49815;51.618;0.336;2022-07-31T01:41:25;100921.86;;;18.99;49.45
63663;BME280;49815;51.618;0.336;2022-07-31T01:43:52;100921.64;;;18.64;50.62
63663;BME280;49815;51.618;0.336;2022-07-31T01:46:15;100915.84;;;20.39;46.61
63663;BME280;49815;51.618;0.336;2022-07-31T01:48:39;100918.49;;;20.14;47.83
63663;BME280;49815;51.618;0.336;2022-07-31T01:51:04;100918.75;;;20.30;46.85
63663;BME280;49815;51.618;0.336;2022-07-31T01:53:29;100916.66;;;20.76;46.06
63663;BME280;49815;51.618;0.336;2022-07-31T01:55:56;100916.99;;;19.63;48.01
63663;BME280;49815;51.618;0.336;2022-07-31T01:58:20;100919.87;;;19.78;48.08
63663;BME280;49815;51.618;0.336;2022-07-31T02:00:45;100915.02;;;19.71;47.42
63663;BME280;49815;51.618;0.336;2022-07-31T02:03:11;100910.62;;;20.58;46.55
63663;BME280;49815;51.618;0.336;2022-07-31T02:05:35;100914.18;;;19.98;47.48
63663;BME280;49815;51.618;0.336;2022-07-31T02:08:00;100911.26;;;21.15;45.10
63663;BME280;49815;51.618;0.336;2022-07-31T02:10:26;100910.53;;;20.12;47.54
63663;BME280;49815;51.618;0.336;2022-07-31T02:12:51;100910.05;;;20.02;47.71
63663;BME280;49815;51.618;0.336;2022-07-31T02:15:16;100909.35;;;20.53;46.75
63663;BME280;49815;51.618;0.336;2022-07-31T02:17:43;100905.40;;;20.43;46.70
63663;BME280;49815;51.618;0.336;2022-07-31T02:20:09;100902.86;;;21.11;44.86
63663;BME280;49815;51.618;0.336;2022-07-31T02:22:32;100899.12;;;20.39;46.29
63663;BME280;49815;51.618;0.336;2022-07-31T02:24:58;100902.80;;;20.46;46.54
63663;BME280;49815;51.618;0.336;2022-07-31T02:27:22;100899.27;;;19.88;47.09
63663;BME280;49815;51.618;0.336;2022-07-31T02:29:47;100894.47;;;20.47;46.77
63663;BME280;49815;51.618;0.336;2022-07-31T02:32:13;100892.68;;;19.84;47.86
63663;BME280;49815;51.618;0.336;2022-07-31T02:34:38;100892.56;;;19.98;47.42
63663;BME280;49815;51.618;0.336;2022-07-31T02:37:03;100890.18;;;20.78;47.21
63663;BME280;49815;51.618;0.336;2022-07-31T02:39:28;100888.51;;;18.72;50.76
63663;BME280;49815;51.618;0.336;2022-07-31T02:41:53;100884.51;;;20.16;47.98
63663;BME280;49815;51.618;0.336;2022-07-31T02:44:19;100886.42;;;20.15;48.58
63663;BME280;49815;51.618;0.336;2022-07-31T02:46:44;100885.40;;;18.01;52.27
63663;BME280;49815;51.618;0.336;2022-07-31T02:49:11;100882.51;;;18.03;52.48
63663;BME280;49815;51.618;0.336;2022-07-31T02:51:34;100874.26;;;17.77;54.03
63663;BME280;49815;51.618;0.336;2022-07-31T02:53:59;100870.32;;;17.55;54.47
63663;BME280;49815;51.618;0.336;2022-07-31T02:56:24;100865.12;;;17.89;54.16
63663;BME280;49815;51.618;0.336;2022-07-31T02:58:49;100863.80;;;19.23;52.53
63663;BME280;49815;51.618;0.336;2022-07-31T03:01:14;100878.48;;;17.00;56.01
63663;BME280;49815;51.618;0.336;2022-07-31T03:03:40;100879.18;;;17.18;56.13
63663;BME280;49815;51.618;0.336;2022-07-31T03:06:05;100874.53;;;17.38;55.78
63663;BME280;49815;51.618;0.336;2022-07-31T03:08:30;100876.22;;;17.33;55.67
63663;BME280;49815;51.618;0.336;2022-07-31T03:10:55;100874.31;;;18.36;53.93
63663;BME280;49815;51.618;0.336;2022-07-31T03:13:23;100871.97;;;17.11;56.17
63663;BME280;49815;51.618;0.336;2022-07-31T03:15:47;100860.14;;;18.79;53.27
63663;BME280;49815;51.618;0.336;2022-07-31T03:18:12;100858.93;;;18.83;53.99
63663;BME280;49815;51.618;0.336;2022-07-31T03:20:37;100862.51;;;17.00;57.65
63663;BME280;49815;51.618;0.336;2022-07-31T03:23:02;100854.01;;;16.90;58.50
63663;BME280;49815;51.618;0.336;2022-07-31T03:25:27;100854.37;;;16.99;57.77
63663;BME280;49815;51.618;0.336;2022-07-31T03:27:52;100851.42;;;17.22;56.91
63663;BME280;49815;51.618;0.336;2022-07-31T03:30:17;100848.43;;;17.67;55.36
63663;BME280;49815;51.618;0.336;2022-07-31T03:32:43;100855.42;;;17.56;56.49
63663;BME280;49815;51.618;0.336;2022-07-31T03:35:09;100859.73;;;17.21;57.94
63663;BME280;49815;51.618;0.336;2022-07-31T03:37:32;100856.83;;;17.83;55.64
63663;BME280;49815;51.618;0.336;2022-07-31T03:39:58;100854.20;;;17.19;56.92
63663;BME280;49815;51.618;0.336;2022-07-31T03:42:23;100846.98;;;17.04;57.34
63663;BME280;49815;51.618;0.336;2022-07-31T03:44:48;100842.30;;;17.46;56.51
63663;BME280;49815;51.618;0.336;2022-07-31T03:47:13;100828.86;;;17.96;55.30
63663;BME280;49815;51.618;0.336;2022-07-31T03:49:38;100840.49;;;17.15;57.62
63663;BME280;49815;51.618;0.336;2022-07-31T03:52:04;100833.01;;;16.16;60.55
63663;BME280;49815;51.618;0.336;2022-07-31T03:54:29;100828.65;;;16.71;59.08
63663;BME280;49815;51.618;0.336;2022-07-31T03:56:56;100825.30;;;16.40;60.21
63663;BME280;49815;51.618;0.336;2022-07-31T03:59:19;100827.47;;;16.99;59.62
63663;BME280;49815;51.618;0.336;2022-07-31T04:01:46;100829.74;;;16.35;60.28
63663;BME280;49815;51.618;0.336;2022-07-31T04:04:10;100828.18;;;17.09;59.52
63663;BME280;49815;51.618;0.336;2022-07-31T04:06:35;100829.90;;;16.70;60.41
63663;BME280;49815;51.618;0.336;2022-07-31T04:09:00;100838.36;;;17.19;59.30
63663;BME280;49815;51.618;0.336;2022-07-31T04:11:26;100838.08;;;16.77;59.27
63663;BME280;49815;51.618;0.336;2022-07-31T04:13:50;100837.81;;;17.27;59.19
63663;BME280;49815;51.618;0.336;2022-07-31T04:16:16;100841.56;;;17.46;57.37
63663;BME280;49815;51.618;0.336;2022-07-31T04:18:41;100838.91;;;17.75;57.63
63663;BME280;49815;51.618;0.336;2022-07-31T04:21:06;100839.91;;;17.48;58.20
63663;BME280;49815;51.618;0.336;2022-07-31T04:23:31;100836.72;;;16.97;59.16
63663;BME280;49815;51.618;0.336;2022-07-31T04:25:57;100834.16;;;16.56;59.87
63663;BME280;49815;51.618;0.336;2022-07-31T04:28:22;100837.91;;;16.99;59.17
63663;BME280;49815;51.618;0.336;2022-07-31T04:30:47;100835.64;;;16.86;60.01
63663;BME280;49815;51.618;0.336;2022-07-31T04:33:13;100835.09;;;17.56;58.04
63663;BME280;49815;51.618;0.336;2022-07-31T04:35:37;100833.15;;;17.49;57.42
63663;BME280;49815;51.618;0.336;2022-07-31T04:38:03;100838.91;;;17.15;57.02
63663;BME280;49815;51.618;0.336;2022-07-31T04:40:28;100826.62;;;18.04;55.35
63663;BME280;49815;51.618;0.336;2022-07-31T04:42:54;100833.68;;;16.96;58.14
63663;BME280;49815;51.618;0.336;2022-07-31T04:45:18;100834.94;;;16.34;59.70
63663;BME280;49815;51.618;0.336;2022-07-31T04:47:43;100836.86;;;16.14;60.54
63663;BME280;49815;51.618;0.336;2022-07-31T04:50:10;100842.20;;;17.64;58.53
63663;BME280;49815;51.618;0.336;2022-07-31T04:52:34;100836.07;;;17.62;57.91
63663;BME280;49815;51.618;0.336;2022-07-31T04:54:59;100832.58;;;17.36;56.71
63663;BME280;49815;51.618;0.336;2022-07-31T04:57:24;100828.88;;;17.76;56.81
63663;BME280;49815;51.618;0.336;2022-07-31T04:59:49;100831.76;;;16.78;59.49
63663;BME280;49815;51.618;0.336;2022-07-31T05:02:15;100828.72;;;17.83;56.23
63663;BME280;49815;51.618;0.336;2022-07-31T05:04:40;100824.75;;;17.62;57.38
63663;BME280;49815;51.618;0.336;2022-07-31T05:07:05;100830.31;;;16.90;58.25
63663;BME280;49815;51.618;0.336;2022-07-31T05:09:30;100818.24;;;17.88;55.71
63663;BME280;49815;51.618;0.336;2022-07-31T05:11:55;100822.74;;;17.65;55.93
63663;BME280;49815;51.618;0.336;2022-07-31T05:14:21;100830.10;;;17.29;57.72
63663;BME280;49815;51.618;0.336;2022-07-31T05:16:46;100828.94;;;17.10;57.08
63663;BME280;49815;51.618;0.336;2022-07-31T05:19:11;100827.77;;;17.97;56.49
63663;BME280;49815;51.618;0.336;2022-07-31T05:21:36;100833.95;;;16.96;58.27
63663;BME280;49815;51.618;0.336;2022-07-31T05:24:02;100832.96;;;17.12;57.09
63663;BME280;49815;51.618;0.336;2022-07-31T05:26:28;100838.82;;;17.34;57.52
63663;BME280;49815;51.618;0.336;2022-07-31T05:28:53;100833.89;;;17.71;56.95
63663;BME280;49815;51.618;0.336;2022-07-31T05:31:18;100824.62;;;17.36;55.64
63663;BME280;49815;51.618;0.336;2022-07-31T05:33:44;100830.28;;;17.48;57.21
63663;BME280;49815;51.618;0.336;2022-07-31T05:36:09;100833.00;;;17.47;57.26
63663;BME280;49815;51.618;0.336;2022-07-31T05:38:32;100832.25;;;16.37;59.59
63663;BME280;49815;51.618;0.336;2022-07-31T05:40:58;100834.56;;;16.53;59.96
63663;BME280;49815;51.618;0.336;2022-07-31T05:43:24;100831.37;;;16.61;60.39
63663;BME280;49815;51.618;0.336;2022-07-31T05:45:49;100828.23;;;16.40;60.84
63663;BME280;49815;51.618;0.336;2022-07-31T05:48:14;100824.53;;;17.31;58.09
63663;BME280;49815;51.618;0.336;2022-07-31T05:50:40;100823.43;;;17.32;57.83
63663;BME280;49815;51.618;0.336;2022-07-31T05:53:04;100820.50;;;17.36;57.18
63663;BME280;49815;51.618;0.336;2022-07-31T05:55:30;100822.66;;;17.36;57.69
63663;BME280;49815;51.618;0.336;2022-07-31T05:57:55;100821.36;;;17.46;57.48
63663;BME280;49815;51.618;0.336;2022-07-31T06:00:20;100817.74;;;16.88;59.15
63663;BME280;49815;51.618;0.336;2022-07-31T06:02:46;100817.76;;;16.76;60.04
63663;BME280;49815;51.618;0.336;2022-07-31T06:05:10;100812.83;;;16.12;61.86
63663;BME280;49815;51.618;0.336;2022-07-31T06:07:36;100813.49;;;17.05;59.43
63663;BME280;49815;51.618;0.336;2022-07-31T06:10:01;100814.40;;;17.36;57.90
63663;BME280;49815;51.618;0.336;2022-07-31T06:12:26;100817.30;;;17.33;59.04
63663;BME280;49815;51.618;0.336;2022-07-31T06:14:51;100818.14;;;17.14;58.43
63663;BME280;49815;51.618;0.336;2022-07-31T06:17:16;100816.54;;;16.84;59.06
63663;BME280;49815;51.618;0.336;2022-07-31T06:19:43;100818.57;;;17.70;56.86
63663;BME280;49815;51.618;0.336;2022-07-31T06:22:09;100822.18;;;16.69;59.31
63663;BME280;49815;51.618;0.336;2022-07-31T06:24:33;100816.77;;;17.48;58.07
63663;BME280;49815;51.618;0.336;2022-07-31T06:26:58;100812.88;;;17.70;56.44
63663;BME280;49815;51.618;0.336;2022-07-31T06:29:23;100816.18;;;18.18;56.03
63663;BME280;49815;51.618;0.336;2022-07-31T06:31:49;100814.80;;;17.54;57.27
63663;BME280;49815;51.618;0.336;2022-07-31T06:34:14;100812.46;;;18.64;53.88
63663;BME280;49815;51.618;0.336;2022-07-31T06:36:39;100812.45;;;18.30;54.79
63663;BME280;49815;51.618;0.336;2022-07-31T06:39:04;100810.61;;;19.24;53.23
63663;BME280;49815;51.618;0.336;2022-07-31T06:41:29;100815.95;;;16.97;57.04
63663;BME280;49815;51.618;0.336;2022-07-31T06:43:54;100814.77;;;18.97;53.40
63663;BME280;49815;51.618;0.336;2022-07-31T06:46:19;100812.84;;;18.95;52.49
63663;BME280;49815;51.618;0.336;2022-07-31T06:48:45;100807.88;;;20.06;50.03
63663;BME280;49815;51.618;0.336;2022-07-31T06:51:10;100805.29;;;21.10;48.40
63663;BME280;49815;51.618;0.336;2022-07-31T06:53:35;100805.10;;;20.32;49.61
63663;BME280;49815;51.618;0.336;2022-07-31T06:56:00;100804.64;;;21.70;46.04
63663;BME280;49815;51.618;0.336;2022-07-31T06:58:25;100801.30;;;21.74;45.51
63663;BME280;49815;51.618;0.336;2022-07-31T07:00:50;100803.11;;;22.38;44.57
63663;BME280;49815;51.618;0.336;2022-07-31T07:03:15;100803.89;;;21.34;46.23
63663;BME280;49815;51.618;0.336;2022-07-31T07:05:40;100800.80;;;19.45;50.87
63663;BME280;49815;51.618;0.336;2022-07-31T07:08:05;100804.96;;;20.30;49.10
63663;BME280;49815;51.618;0.336;2022-07-31T07:10:30;100799.48;;;19.56;51.01
63663;BME280;49815;51.618;0.336;2022-07-31T07:12:55;100807.49;;;18.65;52.69
63663;BME280;49815;51.618;0.336;2022-07-31T07:15:20;100806.88;;;18.27;55.02
63663;BME280;49815;51.618;0.336;2022-07-31T07:17:46;100809.74;;;19.67;51.63
63663;BME280;49815;51.618;0.336;2022-07-31T07:20:11;100819.26;;;18.62;53.79
63663;BME280;49815;51.618;0.336;2022-07-31T07:22:36;100811.76;;;18.12;55.68
63663;BME280;49815;51.618;0.336;2022-07-31T07:25:01;100808.96;;;18.34;55.11
63663;BME280;49815;51.618;0.336;2022-07-31T07:27:26;100806.33;;;19.40;53.00
63663;BME280;49815;51.618;0.336;2022-07-31T07:29:52;100805.37;;;18.82;53.17
63663;BME280;49815;51.618;0.336;2022-07-31T07:32:17;100805.69;;;17.65;55.57
63663;BME280;49815;51.618;0.336;2022-07-31T07:34:43;100807.70;;;18.01;55.61
63663;BME280;49815;51.618;0.336;2022-07-31T07:37:07;100808.84;;;18.33;54.98
63663;BME280;49815;51.618;0.336;2022-07-31T07:39:32;100808.47;;;18.31;54.24
63663;BME280;49815;51.618;0.336;2022-07-31T07:41:58;100807.14;;;18.90;54.42
63663;BME280;49815;51.618;0.336;2022-07-31T07:44:22;100803.27;;;19.25;52.88
63663;BME280;49815;51.618;0.336;2022-07-31T07:46:47;100806.39;;;19.04;53.03
63663;BME280;49815;51.618;0.336;2022-07-31T07:49:13;100798.49;;;18.63;53.87
63663;BME280;49815;51.618;0.336;2022-07-31T07:51:38;100794.28;;;20.32;50.54
63663;BME280;49815;51.618;0.336;2022-07-31T07:54:03;100800.50;;;19.22;52.13
63663;BME280;49815;51.618;0.336;2022-07-31T07:56:28;100804.24;;;20.05;50.83
63663;BME280;49815;51.618;0.336;2022-07-31T07:58:53;100801.65;;;21.08;49.10
63663;BME280;49815;51.618;0.336;2022-07-31T08:01:18;100800.87;;;21.02;47.89
63663;BME280;49815;51.618;0.336;2022-07-31T08:03:44;100800.89;;;20.96;47.48
63663;BME280;49815;51.618;0.336;2022-07-31T08:06:10;100794.95;;;20.43;49.02
63663;BME280;49815;51.618;0.336;2022-07-31T08:08:34;100796.94;;;20.67;48.26
63663;BME280;49815;51.618;0.336;2022-07-31T08:10:59;100798.99;;;19.92;49.22
63663;BME280;49815;51.618;0.336;2022-07-31T08:13:24;100798.14;;;19.43;50.88
63663;BME280;49815;51.618;0.336;2022-07-31T08:15:49;100792.39;;;19.40;51.19
63663;BME280;49815;51.618;0.336;2022-07-31T08:18:14;100792.84;;;21.62;47.02
63663;BME280;49815;51.618;0.336;2022-07-31T08:20:39;100789.21;;;20.09;49.36
63663;BME280;49815;51.618;0.336;2022-07-31T08:23:04;100790.20;;;20.08;48.84
63663;BME280;49815;51.618;0.336;2022-07-31T08:25:31;100796.34;;;19.51;50.75
63663;BME280;49815;51.618;0.336;2022-07-31T08:27:55;100798.18;;;18.35;53.69
63663;BME280;49815;51.618;0.336;2022-07-31T08:30:20;100793.91;;;20.49;49.97
63663;BME280;49815;51.618;0.336;2022-07-31T08:32:45;100799.41;;;18.39;53.35
63663;BME280;49815;51.618;0.336;2022-07-31T08:35:10;100802.65;;;18.91;53.22
63663;BME280;49815;51.618;0.336;2022-07-31T08:37:35;100792.97;;;19.20;51.81
63663;BME280;49815;51.618;0.336;2022-07-31T08:40:00;100796.81;;;19.00;51.66
63663;BME280;49815;51.618;0.336;2022-07-31T08:42:25;100798.08;;;19.98;49.92
63663;BME280;49815;51.618;0.336;2022-07-31T08:44:51;100794.37;;;20.01;49.70
63663;BME280;49815;51.618;0.336;2022-07-31T08:47:16;100797.64;;;19.79;49.90
63663;BME280;49815;51.618;0.336;2022-07-31T08:49:42;100789.88;;;18.83;52.13
63663;BME280;49815;51.618;0.336;2022-07-31T08:52:15;100794.95;;;17.82;54.09
63663;BME280;49815;51.618;0.336;2022-07-31T08:54:31;100795.87;;;18.31;53.41
63663;BME280;49815;51.618;0.336;2022-07-31T08:56:56;100792.32;;;18.84;52.38
63663;BME280;49815;51.618;0.336;2022-07-31T08:59:21;100797.19;;;20.24;49.31
63663;BME280;49815;51.618;0.336;2022-07-31T09:01:46;100793.20;;;19.72;49.03
63663;BME280;49815;51.618;0.336;2022-07-31T09:04:12;100795.34;;;21.19;46.89
63663;BME280;49815;51.618;0.336;2022-07-31T09:06:37;100793.53;;;20.23;48.00
63663;BME280;49815;51.618;0.336;2022-07-31T09:09:02;100793.15;;;20.00;48.64
63663;BME280;49815;51.618;0.336;2022-07-31T09:11:28;100795.43;;;20.63;47.38
63663;BME280;49815;51.618;0.336;2022-07-31T09:13:53;100801.14;;;18.88;51.42
63663;BME280;49815;51.618;0.336;2022-07-31T09:16:17;100811.38;;;18.79;51.93
63663;BME280;49815;51.618;0.336;2022-07-31T09:18:42;100797.96;;;20.11;49.65
63663;BME280;49815;51.618;0.336;2022-07-31T09:21:08;100796.30;;;19.84;49.98
63663;BME280;49815;51.618;0.336;2022-07-31T09:23:32;100801.28;;;20.59;47.52
63663;BME280;49815;51.618;0.336;2022-07-31T09:25:59;100801.60;;;20.39;47.36
63663;BME280;49815;51.618;0.336;2022-07-31T09:28:31;100807.19;;;19.95;48.56
63663;BME280;49815;51.618;0.336;2022-07-31T09:30:52;100803.84;;;18.87;52.11
63663;BME280;49815;51.618;0.336;2022-07-31T09:33:14;100796.50;;;19.96;49.68
63663;BME280;49815;51.618;0.336;2022-07-31T09:35:46;100799.32;;;20.92;47.58
63663;BME280;49815;51.618;0.336;2022-07-31T09:38:03;100796.35;;;20.38;48.39
63663;BME280;49815;51.618;0.336;2022-07-31T09:40:33;100796.40;;;19.94;48.95
63663;BME280;49815;51.618;0.336;2022-07-31T09:42:53;100797.11;;;19.75;49.44
63663;BME280;49815;51.618;0.336;2022-07-31T09:45:19;100803.50;;;19.34;49.81
63663;BME280;49815;51.618;0.336;2022-07-31T09:47:44;100803.53;;;18.74;52.00
63663;BME280;49815;51.618;0.336;2022-07-31T09:50:10;100800.71;;;19.45;50.71
63663;BME280;49815;51.618;0.336;2022-07-31T09:52:33;100803.43;;;19.63;50.17
63663;BME280;49815;51.618;0.336;2022-07-31T09:55:02;100803.89;;;20.16;49.94
63663;BME280;49815;51.618;0.336;2022-07-31T09:57:23;100804.90;;;19.57;50.28
63663;BME280;49815;51.618;0.336;2022-07-31T09:59:49;100806.61;;;19.63;50.13
63663;BME280;49815;51.618;0.336;2022-07-31T10:02:15;100794.98;;;20.20;48.31
63663;BME280;49815;51.618;0.336;2022-07-31T10:04:39;100801.97;;;20.51;48.30
63663;BME280;49815;51.618;0.336;2022-07-31T10:07:04;100801.94;;;20.75;47.61
63663;BME280;49815;51.618;0.336;2022-07-31T10:09:30;100802.85;;;20.52;47.11
63663;BME280;49815;51.618;0.336;2022-07-31T10:11:55;100803.43;;;20.33;49.39
63663;BME280;49815;51.618;0.336;2022-07-31T10:14:26;100804.92;;;20.95;47.78
63663;BME280;49815;51.618;0.336;2022-07-31T10:16:45;100798.58;;;20.29;48.42
63663;BME280;49815;51.618;0.336;2022-07-31T10:19:11;100802.63;;;20.09;49.35
63663;BME280;49815;51.618;0.336;2022-07-31T10:21:38;100797.47;;;20.14;48.69
63663;BME280;49815;51.618;0.336;2022-07-31T10:24:02;100800.37;;;19.75;49.52
63663;BME280;49815;51.618;0.336;2022-07-31T10:26:25;100798.77;;;19.91;48.87
63663;BME280;49815;51.618;0.336;2022-07-31T10:28:50;100796.88;;;19.69;49.71
63663;BME280;49815;51.618;0.336;2022-07-31T10:31:15;100800.01;;;19.68;49.50
63663;BME280;49815;51.618;0.336;2022-07-31T10:33:40;100785.93;;;20.89;47.92
63663;BME280;49815;51.618;0.336;2022-07-31T10:36:09;100791.12;;;21.02;46.64
63663;BME280;49815;51.618;0.336;2022-07-31T10:38:34;100785.27;;;21.39;45.97
63663;BME280;49815;51.618;0.336;2022-07-31T10:41:00;100774.27;;;22.50;44.11
63663;BME280;49815;51.618;0.336;2022-07-31T10:43:26;100780.72;;;21.93;44.16
63663;BME280;49815;51.618;0.336;2022-07-31T10:45:47;100778.63;;;22.40;43.97
63663;BME280;49815;51.618;0.336;2022-07-31T10:48:11;100787.78;;;21.72;45.49
63663;BME280;49815;51.618;0.336;2022-07-31T10:50:35;100784.54;;;21.04;46.63
63663;BME280;49815;51.618;0.336;2022-07-31T10:53:06;100787.16;;;21.35;45.90
63663;BME280;49815;51.618;0.336;2022-07-31T10:55:26;100784.36;;;21.97;45.53
63663;BME280;49815;51.618;0.336;2022-07-31T10:57:50;100787.17;;;21.39;45.62
63663;BME280;49815;51.618;0.336;2022-07-31T11:00:18;100784.58;;;21.12;45.56
63663;BME280;49815;51.618;0.336;2022-07-31T11:02:40;100790.50;;;21.51;46.16
63663;BME280;49815;51.618;0.336;2022-07-31T11:05:10;100789.16;;;20.64;47.55
63663;BME280;49815;51.618;0.336;2022-07-31T11:07:31;100782.90;;;21.41;45.62
63663;BME280;49815;51.618;0.336;2022-07-31T11:10:09;100786.36;;;20.07;48.83
63663;BME280;49815;51.618;0.336;2022-07-31T11:12:26;100784.82;;;21.63;46.20
63663;BME280;49815;51.618;0.336;2022-07-31T11:14:46;100783.10;;;19.90;49.23
63663;BME280;49815;51.618;0.336;2022-07-31T11:17:11;100783.56;;;20.98;47.48
63663;BME280;49815;51.618;0.336;2022-07-31T11:19:37;100780.43;;;20.15;49.51
63663;BME280;49815;51.618;0.336;2022-07-31T11:22:09;100778.98;;;20.77;47.87
63663;BME280;49815;51.618;0.336;2022-07-31T11:24:27;100771.64;;;22.54;44.46
63663;BME280;49815;51.618;0.336;2022-07-31T11:26:53;100775.13;;;20.09;48.49
63663;BME280;49815;51.618;0.336;2022-07-31T11:29:27;100772.93;;;20.24;47.56
63663;BME280;49815;51.618;0.336;2022-07-31T11:31:43;100781.22;;;22.23;45.52
63663;BME280;49815;51.618;0.336;2022-07-31T11:34:07;100772.66;;;21.12;46.66
63663;BME280;49815;51.618;0.336;2022-07-31T11:36:32;100770.54;;;21.71;44.58
63663;BME280;49815;51.618;0.336;2022-07-31T11:38:57;100764.48;;;22.77;43.50
63663;BME280;49815;51.618;0.336;2022-07-31T11:41:27;100767.85;;;21.86;43.99
63663;BME280;49815;51.618;0.336;2022-07-31T11:43:50;100772.55;;;20.79;46.41
63663;BME280;49815;51.618;0.336;2022-07-31T11:46:18;100776.57;;;20.23;48.46
63663;BME280;49815;51.618;0.336;2022-07-31T11:48:38;100765.98;;;20.83;47.38
63663;BME280;49815;51.618;0.336;2022-07-31T11:51:04;100766.06;;;21.21;47.09
63663;BME280;49815;51.618;0.336;2022-07-31T11:53:29;100766.16;;;22.21;44.93
63663;BME280;49815;51.618;0.336;2022-07-31T11:55:54;100757.24;;;24.04;42.03
63663;BME280;49815;51.618;0.336;2022-07-31T11:58:19;100765.41;;;22.31;43.69
63663;BME280;49815;51.618;0.336;2022-07-31T12:00:47;100763.13;;;21.72;45.22
63663;BME280;49815;51.618;0.336;2022-07-31T12:03:10;100760.64;;;22.91;43.39
63663;BME280;49815;51.618;0.336;2022-07-31T12:05:42;100760.51;;;24.08;40.48
63663;BME280;49815;51.618;0.336;2022-07-31T12:07:59;100764.82;;;23.96;40.27
63663;BME280;49815;51.618;0.336;2022-07-31T12:10:24;100759.45;;;24.20;40.48
63663;BME280;49815;51.618;0.336;2022-07-31T12:12:49;100762.14;;;22.19;42.36
63663;BME280;49815;51.618;0.336;2022-07-31T12:15:17;100777.59;;;21.66;45.25
63663;BME280;49815;51.618;0.336;2022-07-31T12:17:39;100775.26;;;22.80;43.02
63663;BME280;49815;51.618;0.336;2022-07-31T12:20:06;100774.35;;;21.82;44.63
63663;BME280;49815;51.618;0.336;2022-07-31T12:22:30;100774.88;;;21.93;43.99
63663;BME280;49815;51.618;0.336;2022-07-31T12:24:58;100768.34;;;22.98;42.71
63663;BME280;49815;51.618;0.336;2022-07-31T12:27:19;100771.49;;;23.03;42.86
63663;BME280;49815;51.618;0.336;2022-07-31T12:29:44;100773.47;;;22.23;42.76
63663;BME280;49815;51.618;0.336;2022-07-31T12:32:10;100773.43;;;22.87;42.01
63663;BME280;49815;51.618;0.336;2022-07-31T12:34:37;100770.26;;;22.87;41.96
63663;BME280;49815;51.618;0.336;2022-07-31T12:37:03;100773.53;;;23.90;40.65
63663;BME280;49815;51.618;0.336;2022-07-31T12:39:27;100767.73;;;23.27;41.36